Soldotna, AK

6:02 AM AKDT on September 30, 2016 (GMT -0800)
Soldotna | | Change Station

Elev 112 ft 60.48 °N, 151.03 °W | Updated 6 minutes ago

Clear
Clear
28 °F
Feels Like 25 °F
N
4
Wind Variable Wind from East

Today
High -- | Low -- °F
--% Chance of Precip.
Yesterday
High -- | Low -- °F
Precip. -- in
Pressure 30.49 in
Visibility 10.0 miles
Clouds Clear
Windchill 25 °F
Dew Point 25 °F
Humidity 86%
Rainfall 0.00 in
Snow Depth Not available.
8:09 AM 7:36 PM
Waning Crescent, 0% visible
METAR PASX 301356Z AUTO 08003KT 10SM CLR M02/M04 A3049 RMK AO1
Pressure 30.49 in
Visibility 10.0 miles
Clouds Clear
Windchill 25 °F
Dew Point 25 °F
Humidity 86%
Rainfall 0.00 in
Snow Depth Not available.
8:09 AM 7:36 PM
Waning Crescent, 0% visible
METAR PASX 301356Z AUTO 08003KT 10SM CLR M02/M04 A3049 RMK AO1

10-Day Weather Forecast

Almanac

Astronomy

Sep. 30, 2016 Rise Set
Actual Time
Civil Twilight
Nautical Twilight
Astronomical Twilight
Moon
Length of Visible Light
Length of Day
Tomorrow will be .
, % of the Moon is Illuminated

Today's Extremes

State Highs State Lows

Community

WunderPhotos

Upload Photos

1,942,716 photos uploaded!

WunderBlog® & News

Nearby

Air Quality

  Air Quality AQ Index Pollutant
Not available.

Snow Depth

Station Depth Elevation

Earthquake Activity

City Distance Mag. Time & Date
Minimum magnitude displayed is 2.5.

Coastal Water Temperatures

Place Temperature

Stations

Nearby Weather Stations

Station Location Temp. Windchill Dew Point Humidity Wind Precip. Elev Updated Type
                   

Watches & Warnings

There are currently no watches in effect.